sensor_id;sensor_type;location;lat;lon;timestamp;temperature;humidity
8994;DHT22;4532;50.886;4.700;2023-07-16T00:00:57;22.10;98.40
8994;DHT22;4532;50.886;4.700;2023-07-16T00:03:24;22.00;98.40
8994;DHT22;4532;50.886;4.700;2023-07-16T00:05:51;22.00;98.40
8994;DHT22;4532;50.886;4.700;2023-07-16T00:08:25;22.00;98.30
8994;DHT22;4532;50.886;4.700;2023-07-16T00:11:02;21.90;98.30
8994;DHT22;4532;50.886;4.700;2023-07-16T00:13:30;21.90;98.50
8994;DHT22;4532;50.886;4.700;2023-07-16T00:15:57;21.80;98.30
8994;DHT22;4532;50.886;4.700;2023-07-16T00:18:29;21.80;98.30
8994;DHT22;4532;50.886;4.700;2023-07-16T00:21:04;21.70;98.30
8994;DHT22;4532;50.886;4.700;2023-07-16T00:23:31;21.70;98.30
8994;DHT22;4532;50.886;4.700;2023-07-16T00:25:58;21.90;98.70
8994;DHT22;4532;50.886;4.700;2023-07-16T00:28:29;21.80;98.50
8994;DHT22;4532;50.886;4.700;2023-07-16T00:30:56;21.80;98.40
8994;DHT22;4532;50.886;4.700;2023-07-16T00:33:25;22.00;98.70
8994;DHT22;4532;50.886;4.700;2023-07-16T00:35:53;21.90;98.60
8994;DHT22;4532;50.886;4.700;2023-07-16T00:38:20;21.80;98.50
8994;DHT22;4532;50.886;4.700;2023-07-16T00:40:47;21.70;98.40
8994;DHT22;4532;50.886;4.700;2023-07-16T00:43:16;21.70;98.40
8994;DHT22;4532;50.886;4.700;2023-07-16T00:45:45;21.60;98.40
8994;DHT22;4532;50.886;4.700;2023-07-16T00:48:21;21.60;98.40
8994;DHT22;4532;50.886;4.700;2023-07-16T00:50:56;21.50;98.30
8994;DHT22;4532;50.886;4.700;2023-07-16T00:53:23;21.50;98.40
8994;DHT22;4532;50.886;4.700;2023-07-16T00:55:53;21.40;98.40
8994;DHT22;4532;50.886;4.700;2023-07-16T00:58:23;21.40;98.30
8994;DHT22;4532;50.886;4.700;2023-07-16T01:00:55;21.30;98.30
8994;DHT22;4532;50.886;4.700;2023-07-16T01:03:25;21.30;98.20
8994;DHT22;4532;50.886;4.700;2023-07-16T01:08:57;21.20;98.50
8994;DHT22;4532;50.886;4.700;2023-07-16T01:11:31;21.20;98.60
8994;DHT22;4532;50.886;4.700;2023-07-16T01:14:02;21.10;98.20
8994;DHT22;4532;50.886;4.700;2023-07-16T01:16:32;21.00;98.10
8994;DHT22;4532;50.886;4.700;2023-07-16T01:18:59;21.00;98.10
8994;DHT22;4532;50.886;4.700;2023-07-16T01:21:51;21.00;98.10
8994;DHT22;4532;50.886;4.700;2023-07-16T01:30:01;21.00;98.40
8994;DHT22;4532;50.886;4.700;2023-07-16T01:32:32;20.90;98.00
8994;DHT22;4532;50.886;4.700;2023-07-16T01:35:04;20.80;97.90
8994;DHT22;4532;50.886;4.700;2023-07-16T01:37:36;20.80;97.90
8994;DHT22;4532;50.886;4.700;2023-07-16T01:40:09;20.70;97.80
8994;DHT22;4532;50.886;4.700;2023-07-16T01:42:41;20.60;98.00
8994;DHT22;4532;50.886;4.700;2023-07-16T01:45:09;20.60;97.60
8994;DHT22;4532;50.886;4.700;2023-07-16T01:50:40;20.50;97.80
8994;DHT22;4532;50.886;4.700;2023-07-16T01:53:12;20.40;97.50
8994;DHT22;4532;50.886;4.700;2023-07-16T01:55:40;20.40;97.50
8994;DHT22;4532;50.886;4.700;2023-07-16T01:58:10;20.30;97.40
8994;DHT22;4532;50.886;4.700;2023-07-16T02:00:41;20.30;97.40
8994;DHT22;4532;50.886;4.700;2023-07-16T02:03:08;20.20;97.40
8994;DHT22;4532;50.886;4.700;2023-07-16T02:05:37;20.20;97.40
8994;DHT22;4532;50.886;4.700;2023-07-16T02:08:05;20.20;97.70
8994;DHT22;4532;50.886;4.700;2023-07-16T02:10:32;20.30;97.60
8994;DHT22;4532;50.886;4.700;2023-07-16T02:13:01;20.30;97.40
8994;DHT22;4532;50.886;4.700;2023-07-16T02:15:28;20.20;97.40
8994;DHT22;4532;50.886;4.700;2023-07-16T02:17:57;20.20;97.50
8994;DHT22;4532;50.886;4.700;2023-07-16T02:20:29;20.10;97.40
8994;DHT22;4532;50.886;4.700;2023-07-16T02:22:58;20.00;97.40
8994;DHT22;4532;50.886;4.700;2023-07-16T02:25:26;20.00;97.30
8994;DHT22;4532;50.886;4.700;2023-07-16T02:27:55;19.90;97.20
8994;DHT22;4532;50.886;4.700;2023-07-16T02:30:27;19.90;97.20
8994;DHT22;4532;50.886;4.700;2023-07-16T02:32:56;19.80;97.20
8994;DHT22;4532;50.886;4.700;2023-07-16T02:35:26;19.80;97.10
8994;DHT22;4532;50.886;4.700;2023-07-16T02:37:55;19.80;97.00
8994;DHT22;4532;50.886;4.700;2023-07-16T02:40:25;19.70;96.90
8994;DHT22;4532;50.886;4.700;2023-07-16T02:42:55;19.60;96.80
8994;DHT22;4532;50.886;4.700;2023-07-16T02:45:22;19.60;96.80
8994;DHT22;4532;50.886;4.700;2023-07-16T02:47:51;19.50;96.70
8994;DHT22;4532;50.886;4.700;2023-07-16T02:50:18;19.50;96.60
8994;DHT22;4532;50.886;4.700;2023-07-16T02:52:48;19.50;96.40
8994;DHT22;4532;50.886;4.700;2023-07-16T02:55:15;19.40;96.30
8994;DHT22;4532;50.886;4.700;2023-07-16T02:57:45;19.40;96.30
8994;DHT22;4532;50.886;4.700;2023-07-16T03:00:15;19.30;96.30
8994;DHT22;4532;50.886;4.700;2023-07-16T03:02:44;19.30;96.20
8994;DHT22;4532;50.886;4.700;2023-07-16T03:05:15;19.20;96.30
8994;DHT22;4532;50.886;4.700;2023-07-16T03:07:43;19.20;96.30
8994;DHT22;4532;50.886;4.700;2023-07-16T03:10:12;19.20;96.30
8994;DHT22;4532;50.886;4.700;2023-07-16T03:12:42;19.20;96.30
8994;DHT22;4532;50.886;4.700;2023-07-16T03:15:18;19.10;96.20
8994;DHT22;4532;50.886;4.700;2023-07-16T03:17:48;19.10;96.30
8994;DHT22;4532;50.886;4.700;2023-07-16T03:20:16;19.00;96.30
8994;DHT22;4532;50.886;4.700;2023-07-16T03:22:45;19.00;96.20
8994;DHT22;4532;50.886;4.700;2023-07-16T03:25:15;19.00;96.20
8994;DHT22;4532;50.886;4.700;2023-07-16T03:27:42;19.00;96.20
8994;DHT22;4532;50.886;4.700;2023-07-16T03:30:12;19.20;96.50
8994;DHT22;4532;50.886;4.700;2023-07-16T03:32:41;19.40;96.50
8994;DHT22;4532;50.886;4.700;2023-07-16T03:35:21;19.30;96.30
8994;DHT22;4532;50.886;4.700;2023-07-16T03:37:59;19.20;96.30
8994;DHT22;4532;50.886;4.700;2023-07-16T03:40:30;19.10;96.20
8994;DHT22;4532;50.886;4.700;2023-07-16T03:42:57;19.10;96.20
8994;DHT22;4532;50.886;4.700;2023-07-16T03:45:24;19.00;96.20
8994;DHT22;4532;50.886;4.700;2023-07-16T03:47:54;19.00;96.20
8994;DHT22;4532;50.886;4.700;2023-07-16T03:50:24;19.00;96.20
8994;DHT22;4532;50.886;4.700;2023-07-16T03:52:53;18.90;96.20
8994;DHT22;4532;50.886;4.700;2023-07-16T03:55:23;18.90;96.20
8994;DHT22;4532;50.886;4.700;2023-07-16T03:57:52;18.90;96.20
8994;DHT22;4532;50.886;4.700;2023-07-16T04:00:24;19.10;96.30
8994;DHT22;4532;50.886;4.700;2023-07-16T04:02:56;19.00;96.10
8994;DHT22;4532;50.886;4.700;2023-07-16T04:05:26;19.00;96.10
8994;DHT22;4532;50.886;4.700;2023-07-16T04:07:58;18.90;96.00
8994;DHT22;4532;50.886;4.700;2023-07-16T04:10:26;18.90;96.00
8994;DHT22;4532;50.886;4.700;2023-07-16T04:12:53;18.90;96.10
8994;DHT22;4532;50.886;4.700;2023-07-16T04:15:23;18.80;96.00
8994;DHT22;4532;50.886;4.700;2023-07-16T04:17:50;18.80;96.00
8994;DHT22;4532;50.886;4.700;2023-07-16T04:20:17;18.80;95.90
8994;DHT22;4532;50.886;4.700;2023-07-16T04:22:44;18.70;95.90
8994;DHT22;4532;50.886;4.700;2023-07-16T04:25:12;18.70;96.00
8994;DHT22;4532;50.886;4.700;2023-07-16T04:27:40;18.70;96.00
8994;DHT22;4532;50.886;4.700;2023-07-16T04:30:13;18.70;95.90
8994;DHT22;4532;50.886;4.700;2023-07-16T04:32:40;18.70;96.00
8994;DHT22;4532;50.886;4.700;2023-07-16T04:35:10;18.70;95.90
8994;DHT22;4532;50.886;4.700;2023-07-16T04:37:37;18.70;95.90
8994;DHT22;4532;50.886;4.700;2023-07-16T04:40:06;18.70;95.90
8994;DHT22;4532;50.886;4.700;2023-07-16T04:42:33;18.70;95.90
8994;DHT22;4532;50.886;4.700;2023-07-16T04:45:06;18.70;95.90
8994;DHT22;4532;50.886;4.700;2023-07-16T04:47:33;18.70;96.00
8994;DHT22;4532;50.886;4.700;2023-07-16T04:50:02;18.70;95.90
8994;DHT22;4532;50.886;4.700;2023-07-16T04:52:31;18.70;95.90
8994;DHT22;4532;50.886;4.700;2023-07-16T04:54:59;18.70;95.90
8994;DHT22;4532;50.886;4.700;2023-07-16T04:57:28;18.70;95.90
8994;DHT22;4532;50.886;4.700;2023-07-16T05:00:00;18.70;95.90
8994;DHT22;4532;50.886;4.700;2023-07-16T05:02:27;18.70;96.00
8994;DHT22;4532;50.886;4.700;2023-07-16T05:04:55;18.70;96.00
8994;DHT22;4532;50.886;4.700;2023-07-16T05:07:22;18.70;96.00
8994;DHT22;4532;50.886;4.700;2023-07-16T05:09:52;18.80;96.00
8994;DHT22;4532;50.886;4.700;2023-07-16T05:12:19;18.80;96.00
8994;DHT22;4532;50.886;4.700;2023-07-16T05:14:47;18.80;96.00
8994;DHT22;4532;50.886;4.700;2023-07-16T05:17:18;18.90;96.10
8994;DHT22;4532;50.886;4.700;2023-07-16T05:19:45;18.90;96.00
8994;DHT22;4532;50.886;4.700;2023-07-16T05:22:12;18.90;96.00
8994;DHT22;4532;50.886;4.700;2023-07-16T05:24:42;19.00;96.10
8994;DHT22;4532;50.886;4.700;2023-07-16T05:27:11;19.00;96.10
8994;DHT22;4532;50.886;4.700;2023-07-16T05:29:38;19.00;96.10
8994;DHT22;4532;50.886;4.700;2023-07-16T05:32:11;19.10;96.20
8994;DHT22;4532;50.886;4.700;2023-07-16T05:34:40;19.10;96.30
8994;DHT22;4532;50.886;4.700;2023-07-16T05:37:12;19.10;96.20
8994;DHT22;4532;50.886;4.700;2023-07-16T05:39:39;19.20;96.30
8994;DHT22;4532;50.886;4.700;2023-07-16T05:42:06;19.20;96.30
8994;DHT22;4532;50.886;4.700;2023-07-16T05:44:35;19.30;96.30
8994;DHT22;4532;50.886;4.700;2023-07-16T05:47:02;19.30;96.30
8994;DHT22;4532;50.886;4.700;2023-07-16T05:49:30;19.30;96.30
8994;DHT22;4532;50.886;4.700;2023-07-16T05:51:57;19.30;96.30
8994;DHT22;4532;50.886;4.700;2023-07-16T05:54:27;19.40;96.30
8994;DHT22;4532;50.886;4.700;2023-07-16T05:56:54;19.40;96.30
8994;DHT22;4532;50.886;4.700;2023-07-16T05:59:21;19.40;96.30
8994;DHT22;4532;50.886;4.700;2023-07-16T06:01:51;19.40;96.30
8994;DHT22;4532;50.886;4.700;2023-07-16T06:04:19;19.40;96.40
8994;DHT22;4532;50.886;4.700;2023-07-16T06:06:51;19.40;96.40
8994;DHT22;4532;50.886;4.700;2023-07-16T06:09:19;19.40;96.40
8994;DHT22;4532;50.886;4.700;2023-07-16T06:11:48;19.50;96.40
8994;DHT22;4532;50.886;4.700;2023-07-16T06:14:16;19.50;96.40
8994;DHT22;4532;50.886;4.700;2023-07-16T06:16:43;19.50;96.40
8994;DHT22;4532;50.886;4.700;2023-07-16T06:19:15;19.50;96.50
8994;DHT22;4532;50.886;4.700;2023-07-16T06:21:44;19.60;96.50
8994;DHT22;4532;50.886;4.700;2023-07-16T06:24:14;19.60;96.50
8994;DHT22;4532;50.886;4.700;2023-07-16T06:26:46;19.60;96.60
8994;DHT22;4532;50.886;4.700;2023-07-16T06:29:14;19.60;96.50
8994;DHT22;4532;50.886;4.700;2023-07-16T06:31:56;19.60;96.60
8994;DHT22;4532;50.886;4.700;2023-07-16T06:34:27;19.70;96.50
8994;DHT22;4532;50.886;4.700;2023-07-16T06:36:54;19.70;96.40
8994;DHT22;4532;50.886;4.700;2023-07-16T06:39:21;19.70;96.50
8994;DHT22;4532;50.886;4.700;2023-07-16T06:41:49;19.70;96.40
8994;DHT22;4532;50.886;4.700;2023-07-16T06:44:18;19.70;96.50
8994;DHT22;4532;50.886;4.700;2023-07-16T06:46:45;19.70;96.50
8994;DHT22;4532;50.886;4.700;2023-07-16T06:49:15;19.80;96.50
8994;DHT22;4532;50.886;4.700;2023-07-16T06:51:42;19.80;96.60
8994;DHT22;4532;50.886;4.700;2023-07-16T06:54:09;19.90;96.60
8994;DHT22;4532;50.886;4.700;2023-07-16T06:56:42;19.90;96.70
8994;DHT22;4532;50.886;4.700;2023-07-16T06:59:11;20.00;96.70
8994;DHT22;4532;50.886;4.700;2023-07-16T07:01:41;20.00;96.70
8994;DHT22;4532;50.886;4.700;2023-07-16T07:04:11;20.10;96.70
8994;DHT22;4532;50.886;4.700;2023-07-16T07:06:38;20.10;96.80
8994;DHT22;4532;50.886;4.700;2023-07-16T07:09:05;20.10;96.60
8994;DHT22;4532;50.886;4.700;2023-07-16T07:11:33;20.10;96.50
8994;DHT22;4532;50.886;4.700;2023-07-16T07:14:03;20.10;96.50
8994;DHT22;4532;50.886;4.700;2023-07-16T07:16:30;20.10;96.60
8994;DHT22;4532;50.886;4.700;2023-07-16T07:18:58;20.20;96.70
8994;DHT22;4532;50.886;4.700;2023-07-16T07:21:27;20.20;96.70
8994;DHT22;4532;50.886;4.700;2023-07-16T07:23:55;20.30;96.70
8994;DHT22;4532;50.886;4.700;2023-07-16T07:26:22;20.20;96.70
8994;DHT22;4532;50.886;4.700;2023-07-16T07:28:49;20.30;96.80
8994;DHT22;4532;50.886;4.700;2023-07-16T07:31:18;20.30;96.80
8994;DHT22;4532;50.886;4.700;2023-07-16T07:33:48;20.30;96.70
8994;DHT22;4532;50.886;4.700;2023-07-16T07:36:17;20.60;96.90
8994;DHT22;4532;50.886;4.700;2023-07-16T07:38:45;20.60;96.80
8994;DHT22;4532;50.886;4.700;2023-07-16T07:41:19;20.60;96.80
8994;DHT22;4532;50.886;4.700;2023-07-16T07:43:46;20.70;96.90
8994;DHT22;4532;50.886;4.700;2023-07-16T07:46:18;20.70;96.90
8994;DHT22;4532;50.886;4.700;2023-07-16T07:48:46;20.70;96.90
8994;DHT22;4532;50.886;4.700;2023-07-16T07:51:15;20.80;96.90
8994;DHT22;4532;50.886;4.700;2023-07-16T07:53:42;20.80;96.90
8994;DHT22;4532;50.886;4.700;2023-07-16T07:56:12;20.80;96.90
8994;DHT22;4532;50.886;4.700;2023-07-16T07:58:40;20.80;96.90
8994;DHT22;4532;50.886;4.700;2023-07-16T08:01:07;20.80;96.90
8994;DHT22;4532;50.886;4.700;2023-07-16T08:03:39;20.90;96.90
8994;DHT22;4532;50.886;4.700;2023-07-16T08:06:07;20.90;97.10
8994;DHT22;4532;50.886;4.700;2023-07-16T08:08:39;21.00;97.00
8994;DHT22;4532;50.886;4.700;2023-07-16T08:11:08;21.00;97.00
8994;DHT22;4532;50.886;4.700;2023-07-16T08:13:38;21.10;97.20
8994;DHT22;4532;50.886;4.700;2023-07-16T08:16:05;21.10;97.20
8994;DHT22;4532;50.886;4.700;2023-07-16T08:18:35;21.20;97.20
8994;DHT22;4532;50.886;4.700;2023-07-16T08:21:04;21.30;97.30
8994;DHT22;4532;50.886;4.700;2023-07-16T08:23:35;21.30;97.30
8994;DHT22;4532;50.886;4.700;2023-07-16T08:26:02;21.40;97.10
8994;DHT22;4532;50.886;4.700;2023-07-16T08:28:29;21.40;97.20
8994;DHT22;4532;50.886;4.700;2023-07-16T08:30:58;21.40;97.10
8994;DHT22;4532;50.886;4.700;2023-07-16T08:33:28;21.50;97.10
8994;DHT22;4532;50.886;4.700;2023-07-16T08:35:55;21.50;97.10
8994;DHT22;4532;50.886;4.700;2023-07-16T08:38:25;21.50;97.10
8994;DHT22;4532;50.886;4.700;2023-07-16T08:40:55;21.50;96.90
8994;DHT22;4532;50.886;4.700;2023-07-16T08:43:22;21.50;97.00
8994;DHT22;4532;50.886;4.700;2023-07-16T08:45:49;21.50;97.00
8994;DHT22;4532;50.886;4.700;2023-07-16T08:48:17;21.60;97.00
8994;DHT22;4532;50.886;4.700;2023-07-16T08:50:52;21.60;97.00
8994;DHT22;4532;50.886;4.700;2023-07-16T08:53:20;21.60;97.00
8994;DHT22;4532;50.886;4.700;2023-07-16T08:55:47;21.70;97.00
8994;DHT22;4532;50.886;4.700;2023-07-16T08:58:25;21.70;97.00
8994;DHT22;4532;50.886;4.700;2023-07-16T09:00:55;21.80;96.90
8994;DHT22;4532;50.886;4.700;2023-07-16T09:03:23;21.70;96.90
8994;DHT22;4532;50.886;4.700;2023-07-16T09:05:50;21.80;97.00
8994;DHT22;4532;50.886;4.700;2023-07-16T09:08:22;21.80;97.00
8994;DHT22;4532;50.886;4.700;2023-07-16T09:10:58;21.90;97.10
8994;DHT22;4532;50.886;4.700;2023-07-16T09:13:26;21.90;97.10
8994;DHT22;4532;50.886;4.700;2023-07-16T09:16:00;22.00;97.00
8994;DHT22;4532;50.886;4.700;2023-07-16T09:18:28;22.10;97.10
8994;DHT22;4532;50.886;4.700;2023-07-16T09:20:59;22.20;97.20
8994;DHT22;4532;50.886;4.700;2023-07-16T09:23:32;22.30;97.20
8994;DHT22;4532;50.886;4.700;2023-07-16T09:26:02;22.40;97.30
8994;DHT22;4532;50.886;4.700;2023-07-16T09:28:31;22.50;97.30
8994;DHT22;4532;50.886;4.700;2023-07-16T09:31:06;22.50;97.10
8994;DHT22;4532;50.886;4.700;2023-07-16T09:33:36;22.60;97.00
8994;DHT22;4532;50.886;4.700;2023-07-16T09:36:04;22.60;97.20
8994;DHT22;4532;50.886;4.700;2023-07-16T09:38:33;22.70;97.30
8994;DHT22;4532;50.886;4.700;2023-07-16T09:41:03;22.70;97.40
8994;DHT22;4532;50.886;4.700;2023-07-16T09:43:31;22.80;97.30
8994;DHT22;4532;50.886;4.700;2023-07-16T09:46:00;22.80;97.30
8994;DHT22;4532;50.886;4.700;2023-07-16T09:48:27;22.90;97.30
8994;DHT22;4532;50.886;4.700;2023-07-16T09:50:57;22.90;97.20
8994;DHT22;4532;50.886;4.700;2023-07-16T09:53:36;23.00;97.20
8994;DHT22;4532;50.886;4.700;2023-07-16T09:56:05;23.00;97.30
8994;DHT22;4532;50.886;4.700;2023-07-16T09:58:33;23.10;97.30
8994;DHT22;4532;50.886;4.700;2023-07-16T10:01:01;23.10;97.30
8994;DHT22;4532;50.886;4.700;2023-07-16T10:03:35;23.10;97.20
8994;DHT22;4532;50.886;4.700;2023-07-16T10:06:06;23.20;97.30
8994;DHT22;4532;50.886;4.700;2023-07-16T10:08:37;23.20;97.20
8994;DHT22;4532;50.886;4.700;2023-07-16T10:11:16;23.20;97.10
8994;DHT22;4532;50.886;4.700;2023-07-16T10:13:49;23.30;97.10
8994;DHT22;4532;50.886;4.700;2023-07-16T10:16:21;23.30;97.10
8994;DHT22;4532;50.886;4.700;2023-07-16T10:18:58;23.30;97.10
8994;DHT22;4532;50.886;4.700;2023-07-16T10:21:27;23.40;97.10
8994;DHT22;4532;50.886;4.700;2023-07-16T10:23:58;23.40;97.10
8994;DHT22;4532;50.886;4.700;2023-07-16T10:26:30;23.50;97.20
8994;DHT22;4532;50.886;4.700;2023-07-16T10:28:57;23.50;97.10
8994;DHT22;4532;50.886;4.700;2023-07-16T10:31:25;23.60;97.10
8994;DHT22;4532;50.886;4.700;2023-07-16T10:34:01;23.60;97.10
8994;DHT22;4532;50.886;4.700;2023-07-16T10:36:41;23.70;96.80
8994;DHT22;4532;50.886;4.700;2023-07-16T10:39:08;23.70;97.10
8994;DHT22;4532;50.886;4.700;2023-07-16T10:41:36;23.70;97.10
8994;DHT22;4532;50.886;4.700;2023-07-16T10:44:03;23.80;96.90
8994;DHT22;4532;50.886;4.700;2023-07-16T10:46:33;23.80;97.00
8994;DHT22;4532;50.886;4.700;2023-07-16T10:49:01;23.80;96.70
8994;DHT22;4532;50.886;4.700;2023-07-16T10:51:31;23.80;96.60
8994;DHT22;4532;50.886;4.700;2023-07-16T10:53:59;23.70;96.50
8994;DHT22;4532;50.886;4.700;2023-07-16T10:56:29;23.70;96.40
8994;DHT22;4532;50.886;4.700;2023-07-16T10:58:58;23.60;96.30
8994;DHT22;4532;50.886;4.700;2023-07-16T11:01:29;23.60;96.40
8994;DHT22;4532;50.886;4.700;2023-07-16T11:04:06;23.50;96.10
8994;DHT22;4532;50.886;4.700;2023-07-16T11:06:33;23.50;96.30
8994;DHT22;4532;50.886;4.700;2023-07-16T11:09:11;23.50;96.20
8994;DHT22;4532;50.886;4.700;2023-07-16T11:11:41;23.40;96.10
8994;DHT22;4532;50.886;4.700;2023-07-16T11:14:15;23.40;96.20
8994;DHT22;4532;50.886;4.700;2023-07-16T11:16:48;23.30;96.20
8994;DHT22;4532;50.886;4.700;2023-07-16T11:19:20;23.40;96.30
8994;DHT22;4532;50.886;4.700;2023-07-16T11:21:49;23.40;96.30
8994;DHT22;4532;50.886;4.700;2023-07-16T11:24:19;23.40;96.40
8994;DHT22;4532;50.886;4.700;2023-07-16T11:26:51;23.50;96.60
8994;DHT22;4532;50.886;4.700;2023-07-16T11:29:24;23.60;96.60
8994;DHT22;4532;50.886;4.700;2023-07-16T11:31:57;23.70;96.60
8994;DHT22;4532;50.886;4.700;2023-07-16T11:34:26;23.70;96.70
8994;DHT22;4532;50.886;4.700;2023-07-16T11:37:12;23.80;96.60
8994;DHT22;4532;50.886;4.700;2023-07-16T11:39:39;23.80;96.40
8994;DHT22;4532;50.886;4.700;2023-07-16T11:42:06;23.80;96.40
8994;DHT22;4532;50.886;4.700;2023-07-16T11:44:35;23.80;96.40
8994;DHT22;4532;50.886;4.700;2023-07-16T11:47:03;23.90;96.50
8994;DHT22;4532;50.886;4.700;2023-07-16T11:49:30;23.90;96.40
8994;DHT22;4532;50.886;4.700;2023-07-16T11:52:05;24.00;96.50
8994;DHT22;4532;50.886;4.700;2023-07-16T11:54:32;24.20;96.30
8994;DHT22;4532;50.886;4.700;2023-07-16T11:57:02;24.30;96.30
8994;DHT22;4532;50.886;4.700;2023-07-16T11:59:29;24.30;96.50
8994;DHT22;4532;50.886;4.700;2023-07-16T12:01:56;24.40;96.60
8994;DHT22;4532;50.886;4.700;2023-07-16T12:04:24;24.40;96.60
8994;DHT22;4532;50.886;4.700;2023-07-16T12:06:56;24.50;96.70
8994;DHT22;4532;50.886;4.700;2023-07-16T12:09:26;24.50;96.40
8994;DHT22;4532;50.886;4.700;2023-07-16T12:11:56;24.60;96.50
8994;DHT22;4532;50.886;4.700;2023-07-16T12:14:24;24.60;96.40
8994;DHT22;4532;50.886;4.700;2023-07-16T12:16:51;24.60;96.40
8994;DHT22;4532;50.886;4.700;2023-07-16T12:19:18;24.60;96.40
8994;DHT22;4532;50.886;4.700;2023-07-16T12:21:48;24.60;96.30
8994;DHT22;4532;50.886;4.700;2023-07-16T12:24:22;24.60;96.40
8994;DHT22;4532;50.886;4.700;2023-07-16T12:26:57;24.60;96.50
8994;DHT22;4532;50.886;4.700;2023-07-16T12:29:27;24.70;96.50
8994;DHT22;4532;50.886;4.700;2023-07-16T12:31:57;24.70;96.60
8994;DHT22;4532;50.886;4.700;2023-07-16T12:34:26;24.70;96.60
8994;DHT22;4532;50.886;4.700;2023-07-16T12:36:54;24.80;96.60
8994;DHT22;4532;50.886;4.700;2023-07-16T12:39:23;24.80;96.70
8994;DHT22;4532;50.886;4.700;2023-07-16T12:41:53;24.80;96.50
8994;DHT22;4532;50.886;4.700;2023-07-16T12:44:20;24.80;96.50
8994;DHT22;4532;50.886;4.700;2023-07-16T12:46:52;24.90;96.40
8994;DHT22;4532;50.886;4.700;2023-07-16T12:49:22;24.90;96.20
8994;DHT22;4532;50.886;4.700;2023-07-16T12:51:49;25.00;96.30
8994;DHT22;4532;50.886;4.700;2023-07-16T12:54:21;25.00;96.40
8994;DHT22;4532;50.886;4.700;2023-07-16T12:56:48;25.00;96.00
8994;DHT22;4532;50.886;4.700;2023-07-16T12:59:18;25.10;96.00
8994;DHT22;4532;50.886;4.700;2023-07-16T13:01:47;25.10;95.90
8994;DHT22;4532;50.886;4.700;2023-07-16T13:04:14;25.20;96.20
8994;DHT22;4532;50.886;4.700;2023-07-16T13:06:42;25.20;96.20
8994;DHT22;4532;50.886;4.700;2023-07-16T13:09:09;25.40;96.00
8994;DHT22;4532;50.886;4.700;2023-07-16T13:11:37;25.50;96.10
8994;DHT22;4532;50.886;4.700;2023-07-16T13:14:11;25.60;96.10
8994;DHT22;4532;50.886;4.700;2023-07-16T13:16:38;25.60;96.00
8994;DHT22;4532;50.886;4.700;2023-07-16T13:19:08;25.60;95.80
8994;DHT22;4532;50.886;4.700;2023-07-16T13:21:38;25.70;95.70
8994;DHT22;4532;50.886;4.700;2023-07-16T13:24:05;25.70;95.80
8994;DHT22;4532;50.886;4.700;2023-07-16T13:26:35;25.70;95.80
8994;DHT22;4532;50.886;4.700;2023-07-16T13:29:02;25.70;95.80
8994;DHT22;4532;50.886;4.700;2023-07-16T13:31:32;25.70;95.70
8994;DHT22;4532;50.886;4.700;2023-07-16T13:33:59;25.80;95.90
8994;DHT22;4532;50.886;4.700;2023-07-16T13:36:31;25.80;95.90
8994;DHT22;4532;50.886;4.700;2023-07-16T13:39:01;25.90;96.00
8994;DHT22;4532;50.886;4.700;2023-07-16T13:41:33;25.80;95.70
8994;DHT22;4532;50.886;4.700;2023-07-16T13:44:01;25.80;96.10
8994;DHT22;4532;50.886;4.700;2023-07-16T13:46:36;25.90;96.00
8994;DHT22;4532;50.886;4.700;2023-07-16T13:49:07;26.00;95.70
8994;DHT22;4532;50.886;4.700;2023-07-16T13:51:41;26.00;95.40
8994;DHT22;4532;50.886;4.700;2023-07-16T13:54:11;26.00;95.60
8994;DHT22;4532;50.886;4.700;2023-07-16T13:56:41;26.00;95.40
8994;DHT22;4532;50.886;4.700;2023-07-16T13:59:08;26.00;95.50
8994;DHT22;4532;50.886;4.700;2023-07-16T14:01:39;26.00;95.30
8994;DHT22;4532;50.886;4.700;2023-07-16T14:04:10;26.00;95.30
8994;DHT22;4532;50.886;4.700;2023-07-16T14:06:38;26.00;95.30
8994;DHT22;4532;50.886;4.700;2023-07-16T14:09:07;25.90;95.00
8994;DHT22;4532;50.886;4.700;2023-07-16T14:11:37;25.80;95.20
8994;DHT22;4532;50.886;4.700;2023-07-16T14:14:04;25.80;95.20
8994;DHT22;4532;50.886;4.700;2023-07-16T14:16:31;25.70;95.10
8994;DHT22;4532;50.886;4.700;2023-07-16T14:18:59;25.70;95.20
8994;DHT22;4532;50.886;4.700;2023-07-16T14:21:29;25.60;95.10
8994;DHT22;4532;50.886;4.700;2023-07-16T14:23:59;25.60;95.20
8994;DHT22;4532;50.886;4.700;2023-07-16T14:26:26;25.60;95.10
8994;DHT22;4532;50.886;4.700;2023-07-16T14:28:54;25.60;95.30
8994;DHT22;4532;50.886;4.700;2023-07-16T14:31:24;25.60;95.30
8994;DHT22;4532;50.886;4.700;2023-07-16T14:33:53;25.70;95.40
8994;DHT22;4532;50.886;4.700;2023-07-16T14:36:20;25.70;95.30
8994;DHT22;4532;50.886;4.700;2023-07-16T14:38:49;25.70;95.30
8994;DHT22;4532;50.886;4.700;2023-07-16T14:41:16;25.70;95.30
8994;DHT22;4532;50.886;4.700;2023-07-16T14:43:47;25.70;95.40
8994;DHT22;4532;50.886;4.700;2023-07-16T14:46:16;25.80;95.40
8994;DHT22;4532;50.886;4.700;2023-07-16T14:48:45;25.80;95.40
8994;DHT22;4532;50.886;4.700;2023-07-16T14:51:13;25.80;95.40
8994;DHT22;4532;50.886;4.700;2023-07-16T14:53:40;25.80;95.30
8994;DHT22;4532;50.886;4.700;2023-07-16T14:56:12;25.80;95.00
8994;DHT22;4532;50.886;4.700;2023-07-16T14:58:41;25.70;94.90
8994;DHT22;4532;50.886;4.700;2023-07-16T15:01:14;25.70;94.60
8994;DHT22;4532;50.886;4.700;2023-07-16T15:03:41;25.70;94.90
8994;DHT22;4532;50.886;4.700;2023-07-16T15:06:11;25.70;94.90
8994;DHT22;4532;50.886;4.700;2023-07-16T15:08:46;25.70;95.00
8994;DHT22;4532;50.886;4.700;2023-07-16T15:11:17;25.80;94.90
8994;DHT22;4532;50.886;4.700;2023-07-16T15:13:44;25.90;95.00
8994;DHT22;4532;50.886;4.700;2023-07-16T15:16:17;25.90;94.80
8994;DHT22;4532;50.886;4.700;2023-07-16T15:18:49;25.90;94.80
8994;DHT22;4532;50.886;4.700;2023-07-16T15:21:16;25.90;94.90
8994;DHT22;4532;50.886;4.700;2023-07-16T15:23:46;26.00;94.80
8994;DHT22;4532;50.886;4.700;2023-07-16T15:26:15;25.90;94.80
8994;DHT22;4532;50.886;4.700;2023-07-16T15:28:45;25.90;94.90
8994;DHT22;4532;50.886;4.700;2023-07-16T15:31:15;25.90;94.80
8994;DHT22;4532;50.886;4.700;2023-07-16T15:33:47;25.90;94.70
8994;DHT22;4532;50.886;4.700;2023-07-16T15:36:14;25.90;94.60
8994;DHT22;4532;50.886;4.700;2023-07-16T15:38:46;25.90;94.60
8994;DHT22;4532;50.886;4.700;2023-07-16T15:41:20;25.90;94.60
8994;DHT22;4532;50.886;4.700;2023-07-16T15:43:51;25.90;94.50
8994;DHT22;4532;50.886;4.700;2023-07-16T15:46:18;25.80;94.40
8994;DHT22;4532;50.886;4.700;2023-07-16T15:48:46;25.70;94.20
8994;DHT22;4532;50.886;4.700;2023-07-16T15:51:14;25.70;94.40
8994;DHT22;4532;50.886;4.700;2023-07-16T15:53:42;25.60;94.50
8994;DHT22;4532;50.886;4.700;2023-07-16T15:56:10;25.60;94.70
8994;DHT22;4532;50.886;4.700;2023-07-16T15:58:40;25.50;94.80
8994;DHT22;4532;50.886;4.700;2023-07-16T16:01:08;25.40;95.00
8994;DHT22;4532;50.886;4.700;2023-07-16T16:03:35;25.50;95.40
8994;DHT22;4532;50.886;4.700;2023-07-16T16:06:02;25.40;95.30
8994;DHT22;4532;50.886;4.700;2023-07-16T16:08:29;25.30;95.40
8994;DHT22;4532;50.886;4.700;2023-07-16T16:11:03;25.30;95.50
8994;DHT22;4532;50.886;4.700;2023-07-16T16:13:30;25.20;95.60
8994;DHT22;4532;50.886;4.700;2023-07-16T16:16:00;25.20;95.70
8994;DHT22;4532;50.886;4.700;2023-07-16T16:18:27;25.20;95.70
8994;DHT22;4532;50.886;4.700;2023-07-16T16:20:57;25.20;95.90
8994;DHT22;4532;50.886;4.700;2023-07-16T16:23:25;25.20;96.00
8994;DHT22;4532;50.886;4.700;2023-07-16T16:25:54;25.20;96.10
8994;DHT22;4532;50.886;4.700;2023-07-16T16:28:24;25.30;96.20